createdAt,value
2023-02-06T00:00:13.854Z,-2.70
2023-02-06T00:02:56.122Z,-2.70
2023-02-06T00:05:38.696Z,-2.70
2023-02-06T00:08:20.898Z,-2.70
2023-02-06T00:11:05.637Z,-2.70
2023-02-06T00:13:48.724Z,-2.70
2023-02-06T00:16:33.249Z,-2.70
2023-02-06T00:19:15.499Z,-2.80
2023-02-06T00:21:57.949Z,-2.80
2023-02-06T00:24:43.346Z,-2.70
2023-02-06T00:27:26.833Z,-2.70
2023-02-06T00:30:09.411Z,-2.70
2023-02-06T00:32:51.927Z,-2.70
2023-02-06T00:35:34.441Z,-2.70
2023-02-06T00:38:17.174Z,-2.70
2023-02-06T00:40:59.989Z,-2.70
2023-02-06T00:43:43.649Z,-2.80
2023-02-06T00:46:25.971Z,-2.80
2023-02-06T00:49:08.476Z,-2.80
2023-02-06T00:51:50.895Z,-2.80
2023-02-06T00:54:33.288Z,-2.80
2023-02-06T00:57:15.529Z,-2.70
2023-02-06T00:59:58.042Z,-2.70
2023-02-06T01:02:41.882Z,-2.70
2023-02-06T01:05:24.801Z,-2.70
2023-02-06T01:08:07.146Z,-2.70
2023-02-06T01:10:49.516Z,-2.80
2023-02-06T01:13:31.811Z,-2.80
2023-02-06T01:16:16.608Z,-2.80
2023-02-06T01:18:58.780Z,-2.80
2023-02-06T01:21:41.274Z,-2.80
2023-02-06T01:24:23.489Z,-2.90
2023-02-06T01:27:05.998Z,-2.90
2023-02-06T01:29:48.174Z,-2.90
2023-02-06T01:32:31.410Z,-3.00
2023-02-06T01:35:13.840Z,-3.00
2023-02-06T01:37:56.252Z,-3.00
2023-02-06T01:40:38.429Z,-3.10
2023-02-06T01:43:20.894Z,-3.10
2023-02-06T01:46:03.297Z,-3.10
2023-02-06T01:48:52.332Z,-3.10
2023-02-06T01:51:35.041Z,-3.10
2023-02-06T01:54:17.793Z,-3.10
2023-02-06T01:57:04.412Z,-3.10
2023-02-06T01:59:52.603Z,-3.10
2023-02-06T02:02:36.248Z,-3.10
2023-02-06T02:05:20.007Z,-3.20
2023-02-06T02:08:10.449Z,-3.20
2023-02-06T02:10:53.249Z,-3.20
2023-02-06T02:13:38.287Z,-3.20
2023-02-06T02:16:54.915Z,-3.20
2023-02-06T02:19:58.602Z,-3.20
2023-02-06T02:23:08.277Z,-3.20
2023-02-06T02:26:24.791Z,-3.20
2023-02-06T02:29:47.057Z,-3.20
2023-02-06T02:32:55.309Z,-3.20
2023-02-06T02:35:51.569Z,-3.30
2023-02-06T02:38:40.368Z,-3.30
2023-02-06T02:41:33.851Z,-3.30
2023-02-06T02:44:28.932Z,-3.30
2023-02-06T02:47:15.434Z,-3.30
2023-02-06T02:50:00.888Z,-3.30
2023-02-06T02:52:44.623Z,-3.30
2023-02-06T02:55:27.564Z,-3.30
2023-02-06T02:58:18.253Z,-3.20
2023-02-06T03:01:12.449Z,-3.20
2023-02-06T03:03:59.191Z,-3.20
2023-02-06T03:07:21.888Z,-3.20
2023-02-06T03:10:23.067Z,-3.20
2023-02-06T03:13:11.234Z,-3.20
2023-02-06T03:16:12.414Z,-3.20
2023-02-06T03:19:19.082Z,-3.20
2023-02-06T03:22:03.101Z,-3.20
2023-02-06T03:24:46.154Z,-3.20
2023-02-06T03:27:29.697Z,-3.30
2023-02-06T03:30:14.228Z,-3.30
2023-02-06T03:33:06.990Z,-3.30
2023-02-06T03:35:49.645Z,-3.30
2023-02-06T03:38:32.425Z,-3.40
2023-02-06T03:41:17.511Z,-3.30
2023-02-06T03:44:01.595Z,-3.40
2023-02-06T03:46:45.066Z,-3.40
2023-02-06T03:49:29.651Z,-3.40
2023-02-06T03:52:17.332Z,-3.40
2023-02-06T03:55:04.930Z,-3.40
2023-02-06T03:57:51.926Z,-3.40
2023-02-06T04:00:34.954Z,-3.50
2023-02-06T04:03:20.070Z,-3.50
2023-02-06T04:06:02.610Z,-3.50
2023-02-06T04:08:44.825Z,-3.50
2023-02-06T04:11:27.235Z,-3.50
2023-02-06T04:14:09.424Z,-3.50
2023-02-06T04:16:51.833Z,-3.50
2023-02-06T04:19:34.749Z,-3.50
2023-02-06T04:22:17.339Z,-3.50
2023-02-06T04:24:59.546Z,-3.50
2023-02-06T04:27:41.989Z,-3.50
2023-02-06T04:30:24.202Z,-3.50
2023-02-06T04:33:06.632Z,-3.50
2023-02-06T04:35:49.138Z,-3.50
2023-02-06T04:38:31.583Z,-3.60
2023-02-06T04:41:13.820Z,-3.60
2023-02-06T04:43:56.324Z,-3.60
2023-02-06T04:46:38.676Z,-3.60
2023-02-06T04:49:21.191Z,-3.60
2023-02-06T04:52:04.330Z,-3.60
2023-02-06T04:54:47.066Z,-3.60
2023-02-06T04:57:29.633Z,-3.60
2023-02-06T05:00:13.540Z,-3.60
2023-02-06T05:02:55.798Z,-3.60
2023-02-06T05:05:38.335Z,-3.60
2023-02-06T05:08:20.726Z,-3.60
2023-02-06T05:11:03.490Z,-3.70
2023-02-06T05:13:46.034Z,-3.70
2023-02-06T05:16:28.939Z,-3.70
2023-02-06T05:19:11.165Z,-3.70
2023-02-06T05:21:53.629Z,-3.70
2023-02-06T05:24:35.795Z,-3.70
2023-02-06T05:27:18.287Z,-3.60
2023-02-06T05:30:00.720Z,-3.70
2023-02-06T05:32:43.371Z,-3.70
2023-02-06T05:35:25.688Z,-3.80
2023-02-06T05:38:08.580Z,-3.80
2023-02-06T05:40:51.713Z,-3.90
2023-02-06T05:43:34.179Z,-3.90
2023-02-06T05:46:16.824Z,-3.90
2023-02-06T05:49:02.254Z,-3.90
2023-02-06T05:51:45.068Z,-4.00
2023-02-06T05:54:28.133Z,-4.00
2023-02-06T05:57:11.184Z,-4.00
2023-02-06T05:59:53.943Z,-4.10
2023-02-06T06:02:36.527Z,-4.10
2023-02-06T06:05:22.207Z,-4.10
2023-02-06T06:08:04.933Z,-4.20
2023-02-06T06:10:51.411Z,-4.20
2023-02-06T06:13:33.764Z,-4.10
2023-02-06T06:16:16.357Z,-4.20
2023-02-06T06:18:58.821Z,-4.20
2023-02-06T06:21:43.402Z,-4.20
2023-02-06T06:24:26.301Z,-4.20
2023-02-06T06:27:10.782Z,-4.10
2023-02-06T06:29:53.041Z,-4.10
2023-02-06T06:32:36.459Z,-4.00
2023-02-06T06:35:18.957Z,-4.00
2023-02-06T06:38:03.221Z,-4.00
2023-02-06T06:40:45.647Z,-3.90
2023-02-06T06:43:28.421Z,-3.90
2023-02-06T06:46:11.038Z,-3.70
2023-02-06T06:48:53.813Z,-3.70
2023-02-06T06:51:36.224Z,-3.70
2023-02-06T06:54:19.670Z,-3.60
2023-02-06T06:57:02.045Z,-3.60
2023-02-06T06:59:44.778Z,-3.50
2023-02-06T07:02:28.829Z,-3.50
2023-02-06T07:05:11.608Z,-3.40
2023-02-06T07:07:53.933Z,-3.40
2023-02-06T07:10:36.454Z,-3.20
2023-02-06T07:13:18.858Z,-3.10
2023-02-06T07:16:01.355Z,-3.10
2023-02-06T07:18:43.665Z,-3.20
2023-02-06T07:21:26.220Z,-3.00
2023-02-06T07:24:08.626Z,-2.90
2023-02-06T07:26:51.194Z,-2.70
2023-02-06T07:29:33.956Z,-2.50
2023-02-06T07:32:19.527Z,-2.50
2023-02-06T07:35:01.800Z,-2.60
2023-02-06T07:37:44.386Z,-2.70
2023-02-06T07:40:33.758Z,-2.60
2023-02-06T07:43:25.684Z,-2.70
2023-02-06T07:46:07.959Z,-2.70
2023-02-06T07:48:50.706Z,-2.70
2023-02-06T07:51:32.960Z,-2.70
2023-02-06T07:54:15.617Z,-2.70
2023-02-06T07:56:58.122Z,-2.70
2023-02-06T07:59:40.706Z,-2.70
2023-02-06T08:02:22.943Z,-2.70
2023-02-06T08:05:05.712Z,-2.80
2023-02-06T08:07:47.948Z,-2.80
2023-02-06T08:10:30.625Z,-2.80
2023-02-06T08:13:13.001Z,-2.80
2023-02-06T08:15:55.540Z,-2.80
2023-02-06T08:18:38.423Z,-2.70
2023-02-06T08:21:23.804Z,-2.50
2023-02-06T08:24:07.087Z,-2.40
2023-02-06T08:26:49.678Z,-2.30
2023-02-06T08:29:32.625Z,-2.20
2023-02-06T08:32:15.106Z,-2.00
2023-02-06T08:34:57.323Z,-1.90
2023-02-06T08:37:40.873Z,-1.90
2023-02-06T08:40:26.812Z,-1.90
2023-02-06T08:43:09.340Z,-1.80
2023-02-06T08:45:53.163Z,-1.80
2023-02-06T08:48:35.754Z,-1.80
2023-02-06T08:51:18.010Z,-1.60
2023-02-06T08:54:04.101Z,-1.70
2023-02-06T08:56:46.955Z,-1.60
2023-02-06T08:59:31.054Z,-1.50
2023-02-06T09:02:14.335Z,-1.50
2023-02-06T09:04:56.816Z,-1.50
2023-02-06T09:07:39.214Z,-1.40
2023-02-06T09:10:27.557Z,-1.50
2023-02-06T09:13:10.266Z,-1.40
2023-02-06T09:15:53.545Z,-1.40
2023-02-06T09:18:36.271Z,-1.30
2023-02-06T09:21:21.646Z,-1.30
2023-02-06T09:24:07.713Z,-1.30
2023-02-06T09:26:59.554Z,-1.40
2023-02-06T09:29:42.760Z,-1.40
2023-02-06T09:32:25.331Z,-1.50
2023-02-06T09:35:07.944Z,-1.50
2023-02-06T09:37:50.497Z,-1.30
2023-02-06T09:40:34.056Z,-1.30
2023-02-06T09:43:19.918Z,-1.30
2023-02-06T09:46:06.252Z,-1.20
2023-02-06T09:48:50.419Z,-1.10
2023-02-06T09:51:55.714Z,-1.10
2023-02-06T09:54:38.109Z,-1.10
2023-02-06T09:57:38.956Z,-1.10
2023-02-06T10:00:46.739Z,-1.00
2023-02-06T10:03:41.160Z,-0.90
2023-02-06T10:06:35.892Z,-0.90
2023-02-06T10:09:25.530Z,-0.80
2023-02-06T10:12:25.492Z,-0.80
2023-02-06T10:15:38.927Z,-0.90
2023-02-06T10:18:32.163Z,-0.90
2023-02-06T10:21:32.983Z,-0.80
2023-02-06T10:24:43.149Z,-0.80
2023-02-06T10:27:25.504Z,-0.70
2023-02-06T10:30:16.353Z,-0.80
2023-02-06T10:33:25.211Z,-0.80
2023-02-06T10:36:08.597Z,-0.80
2023-02-06T10:39:20.979Z,-0.70
2023-02-06T10:42:06.192Z,-0.60
2023-02-06T10:45:01.447Z,-0.70
2023-02-06T10:47:59.081Z,-0.60
2023-02-06T10:51:21.457Z,-0.60
2023-02-06T10:54:26.081Z,-0.60
2023-02-06T10:57:21.851Z,-0.60
2023-02-06T11:00:11.453Z,-0.70
2023-02-06T11:03:07.518Z,-0.70
2023-02-06T11:05:52.609Z,-0.80
2023-02-06T11:08:42.309Z,-0.80
2023-02-06T11:11:31.310Z,-0.90
2023-02-06T11:14:48.581Z,-0.80
2023-02-06T11:17:31.684Z,-0.80
2023-02-06T11:20:22.076Z,-0.80
2023-02-06T11:23:19.276Z,-0.90
2023-02-06T11:26:10.778Z,-0.90
2023-02-06T11:29:01.882Z,-0.80
2023-02-06T11:31:47.361Z,-0.70
2023-02-06T11:34:54.824Z,-0.60
2023-02-06T11:37:40.314Z,-0.60
2023-02-06T11:40:27.841Z,-0.40
2023-02-06T11:43:16.703Z,-0.30
2023-02-06T11:46:08.885Z,0.00
2023-02-06T11:48:58.685Z,0.20
2023-02-06T11:51:51.659Z,0.40
2023-02-06T11:54:36.048Z,0.50
2023-02-06T11:57:24.135Z,0.60
2023-02-06T12:00:24.011Z,0.60
2023-02-06T12:03:32.170Z,0.70
2023-02-06T12:06:22.083Z,0.60
2023-02-06T12:09:11.368Z,0.70
2023-02-06T12:12:06.555Z,0.80
2023-02-06T12:15:23.673Z,0.80
2023-02-06T12:18:22.806Z,0.80
2023-02-06T12:21:27.505Z,0.90
2023-02-06T12:24:37.443Z,1.10
2023-02-06T12:27:24.213Z,1.20
2023-02-06T12:30:26.225Z,0.90
2023-02-06T12:33:22.894Z,0.80
2023-02-06T12:36:11.720Z,0.70
2023-02-06T12:39:05.135Z,0.60
2023-02-06T12:42:05.582Z,0.50
2023-02-06T12:45:00.380Z,0.50
2023-02-06T12:47:58.716Z,0.50
2023-02-06T12:50:51.404Z,0.50
2023-02-06T12:53:45.251Z,0.50
2023-02-06T12:56:27.844Z,0.40
2023-02-06T12:59:10.236Z,0.30
2023-02-06T13:02:14.508Z,0.20
2023-02-06T13:04:57.445Z,0.20
2023-02-06T13:07:49.337Z,0.20
2023-02-06T13:10:32.325Z,0.10
2023-02-06T13:13:34.985Z,0.10
2023-02-06T13:16:19.041Z,0.00
2023-02-06T13:19:03.319Z,0.10
2023-02-06T13:21:52.889Z,0.10
2023-02-06T13:24:40.265Z,0.10
2023-02-06T13:27:38.237Z,0.10
2023-02-06T13:30:23.780Z,0.00
2023-02-06T13:33:23.178Z,0.00
2023-02-06T13:36:10.183Z,0.00
2023-02-06T13:39:23.867Z,0.10
2023-02-06T13:42:33.280Z,0.10
2023-02-06T13:45:46.491Z,0.10
2023-02-06T13:48:50.845Z,0.10
2023-02-06T13:51:50.398Z,0.00
2023-02-06T13:54:54.865Z,-0.10
2023-02-06T13:57:46.058Z,-0.10
2023-02-06T14:00:31.986Z,-0.10
2023-02-06T14:03:23.826Z,-0.20
2023-02-06T14:06:15.792Z,-0.20
2023-02-06T14:09:30.748Z,-0.20
2023-02-06T14:12:48.328Z,-0.30
2023-02-06T14:15:43.205Z,-0.40
2023-02-06T14:18:46.853Z,-0.40
2023-02-06T14:21:52.861Z,-0.40
2023-02-06T14:25:04.150Z,-0.40
2023-02-06T14:27:49.376Z,-0.40
2023-02-06T14:30:44.808Z,-0.40
2023-02-06T14:34:05.317Z,-0.40
2023-02-06T14:36:50.876Z,-0.40
2023-02-06T14:39:36.390Z,-0.30
2023-02-06T14:42:48.995Z,-0.40
2023-02-06T14:45:42.015Z,-0.50
2023-02-06T14:48:39.940Z,-0.40
2023-02-06T14:51:41.475Z,-0.40
2023-02-06T14:54:31.472Z,-0.50
2023-02-06T14:57:27.497Z,-0.50
2023-02-06T15:00:17.490Z,-0.60
2023-02-06T15:03:06.017Z,-0.60
2023-02-06T15:06:03.348Z,-0.70
2023-02-06T15:08:50.206Z,-0.80
2023-02-06T15:11:33.915Z,-0.90
2023-02-06T15:14:24.279Z,-1.00
2023-02-06T15:17:07.108Z,-1.10
2023-02-06T15:19:49.695Z,-1.10
2023-02-06T15:22:33.612Z,-1.20
2023-02-06T15:25:42.608Z,-1.30
2023-02-06T15:28:29.514Z,-1.30
2023-02-06T15:31:21.160Z,-1.40
2023-02-06T15:34:06.704Z,-1.50
2023-02-06T15:36:49.993Z,-1.60
2023-02-06T15:39:33.196Z,-1.60
2023-02-06T15:42:16.761Z,-1.70
2023-02-06T15:45:01.012Z,-1.80
2023-02-06T15:47:46.309Z,-1.80
2023-02-06T15:50:29.277Z,-1.90
2023-02-06T15:53:28.651Z,-1.90
2023-02-06T15:56:29.677Z,-2.00
2023-02-06T15:59:20.877Z,-2.10
2023-02-06T16:02:05.345Z,-2.20
2023-02-06T16:04:53.106Z,-2.30
2023-02-06T16:07:36.946Z,-2.40
2023-02-06T16:10:33.194Z,-2.40
2023-02-06T16:13:19.833Z,-2.50
2023-02-06T16:16:12.106Z,-2.50
2023-02-06T16:18:58.796Z,-2.60
2023-02-06T16:21:43.832Z,-2.70
2023-02-06T16:24:28.763Z,-2.80
2023-02-06T16:27:33.632Z,-2.80
2023-02-06T16:30:28.416Z,-2.90
2023-02-06T16:33:26.306Z,-2.90
2023-02-06T16:36:15.777Z,-3.00
2023-02-06T16:39:04.026Z,-3.00
2023-02-06T16:41:52.378Z,-3.00
2023-02-06T16:44:44.746Z,-3.00
2023-02-06T16:47:29.432Z,-3.10
2023-02-06T16:50:12.524Z,-3.10
2023-02-06T16:52:58.280Z,-3.10
2023-02-06T16:55:43.644Z,-3.20
2023-02-06T16:58:30.376Z,-3.20
2023-02-06T17:01:26.759Z,-3.20
2023-02-06T17:04:10.034Z,-3.30
2023-02-06T17:06:53.129Z,-3.40
2023-02-06T17:09:36.095Z,-3.40
2023-02-06T17:12:21.927Z,-3.40
2023-02-06T17:15:05.386Z,-3.40
2023-02-06T17:17:47.987Z,-3.40
2023-02-06T17:20:39.400Z,-3.40
2023-02-06T17:23:23.217Z,-3.40
2023-02-06T17:26:06.277Z,-3.40
2023-02-06T17:28:49.470Z,-3.50
2023-02-06T17:31:32.413Z,-3.50
2023-02-06T17:34:14.802Z,-3.60
2023-02-06T17:36:57.693Z,-3.70
2023-02-06T17:39:40.185Z,-3.70
2023-02-06T17:42:24.353Z,-3.80
2023-02-06T17:45:07.328Z,-3.80
2023-02-06T17:47:50.073Z,-3.90
2023-02-06T17:50:34.383Z,-3.90
2023-02-06T17:53:17.919Z,-3.90
2023-02-06T17:56:08.162Z,-3.90
2023-02-06T17:58:51.530Z,-3.90
2023-02-06T18:01:34.492Z,-3.90
2023-02-06T18:04:20.611Z,-3.90
2023-02-06T18:07:03.393Z,-4.00
2023-02-06T18:09:47.862Z,-4.00
2023-02-06T18:12:30.527Z,-4.00
2023-02-06T18:15:14.059Z,-4.10
2023-02-06T18:18:00.148Z,-4.10
2023-02-06T18:20:43.931Z,-4.20
2023-02-06T18:23:27.168Z,-4.20
2023-02-06T18:26:10.898Z,-4.30
2023-02-06T18:28:53.937Z,-4.30
2023-02-06T18:31:36.843Z,-4.30
2023-02-06T18:34:20.518Z,-4.30
2023-02-06T18:37:04.411Z,-4.40
2023-02-06T18:39:46.904Z,-4.40
2023-02-06T18:42:47.827Z,-4.50
2023-02-06T18:45:34.375Z,-4.50
2023-02-06T18:48:17.197Z,-4.50
2023-02-06T18:51:01.347Z,-4.60
2023-02-06T18:53:44.771Z,-4.60
2023-02-06T18:56:27.750Z,-4.60
2023-02-06T18:59:10.522Z,-4.70
2023-02-06T19:01:54.079Z,-4.70
2023-02-06T19:04:37.035Z,-4.80
2023-02-06T19:07:20.128Z,-4.80
2023-02-06T19:10:06.146Z,-4.80
2023-02-06T19:12:48.883Z,-4.80
2023-02-06T19:15:34.562Z,-4.80
2023-02-06T19:18:23.448Z,-4.90
2023-02-06T19:21:19.512Z,-4.80
2023-02-06T19:24:02.138Z,-4.90
2023-02-06T19:26:45.596Z,-4.90
2023-02-06T19:29:35.520Z,-4.90
2023-02-06T19:32:19.649Z,-5.00
2023-02-06T19:35:02.935Z,-5.00
2023-02-06T19:37:46.107Z,-5.00
2023-02-06T19:40:32.610Z,-5.10
2023-02-06T19:43:16.445Z,-5.10
2023-02-06T19:46:03.988Z,-5.20
2023-02-06T19:48:48.475Z,-5.20
2023-02-06T19:51:35.398Z,-5.30
2023-02-06T19:54:18.946Z,-5.20
2023-02-06T19:57:02.008Z,-5.30
2023-02-06T19:59:45.111Z,-5.30
2023-02-06T20:02:27.975Z,-5.30
2023-02-06T20:05:11.239Z,-5.40
2023-02-06T20:07:55.138Z,-5.40
2023-02-06T20:10:39.739Z,-5.40
2023-02-06T20:13:23.151Z,-5.50
2023-02-06T20:16:13.423Z,-5.50
2023-02-06T20:18:56.840Z,-5.60
2023-02-06T20:21:43.232Z,-5.60
2023-02-06T20:24:29.139Z,-5.60
2023-02-06T20:27:13.292Z,-5.70
2023-02-06T20:29:55.999Z,-5.80
2023-02-06T20:32:38.826Z,-5.80
2023-02-06T20:35:21.524Z,-5.80
2023-02-06T20:38:04.397Z,-5.90
2023-02-06T20:40:52.525Z,-5.90
2023-02-06T20:43:37.046Z,-5.90
2023-02-06T20:46:21.672Z,-5.90
2023-02-06T20:49:14.247Z,-5.90
2023-02-06T20:51:56.891Z,-6.00
2023-02-06T20:54:39.678Z,-6.10
2023-02-06T20:57:23.184Z,-6.10
2023-02-06T21:00:07.739Z,-6.20
2023-02-06T21:02:52.057Z,-6.20
2023-02-06T21:05:36.019Z,-6.30
2023-02-06T21:08:18.535Z,-6.40
2023-02-06T21:11:02.572Z,-6.40
2023-02-06T21:13:45.845Z,-6.40
2023-02-06T21:16:30.880Z,-6.40
2023-02-06T21:19:16.744Z,-6.30
2023-02-06T21:22:00.847Z,-6.30
2023-02-06T21:24:44.018Z,-6.30
2023-02-06T21:27:29.841Z,-6.40
2023-02-06T21:30:13.237Z,-6.40
2023-02-06T21:32:56.569Z,-6.40
2023-02-06T21:35:40.530Z,-6.50
2023-02-06T21:38:24.418Z,-6.50
2023-02-06T21:41:09.783Z,-6.60
2023-02-06T21:43:52.722Z,-6.60
2023-02-06T21:46:35.255Z,-6.60
2023-02-06T21:49:18.131Z,-6.60
2023-02-06T21:52:00.834Z,-6.70
2023-02-06T21:54:43.412Z,-6.80
2023-02-06T21:57:25.815Z,-6.80
2023-02-06T22:00:09.913Z,-6.70
2023-02-06T22:02:55.338Z,-6.60
2023-02-06T22:05:38.569Z,-6.60
2023-02-06T22:08:21.312Z,-6.60
2023-02-06T22:11:15.297Z,-6.70
2023-02-06T22:13:59.838Z,-6.80
2023-02-06T22:16:43.367Z,-6.80
2023-02-06T22:19:26.099Z,-6.90
2023-02-06T22:22:08.789Z,-6.90
2023-02-06T22:24:51.348Z,-6.90
2023-02-06T22:27:35.029Z,-6.80
2023-02-06T22:30:17.882Z,-6.90
2023-02-06T22:33:00.454Z,-6.90
2023-02-06T22:35:42.787Z,-7.00
2023-02-06T22:38:25.929Z,-7.10
2023-02-06T22:41:11.334Z,-7.10
2023-02-06T22:43:53.924Z,-7.20
2023-02-06T22:46:38.045Z,-7.20
2023-02-06T22:49:21.886Z,-7.20
2023-02-06T22:52:04.513Z,-7.20
2023-02-06T22:54:47.099Z,-7.20
2023-02-06T22:57:29.827Z,-7.20
2023-02-06T23:00:14.826Z,-7.20
2023-02-06T23:02:57.183Z,-7.20
2023-02-06T23:05:40.196Z,-7.20
2023-02-06T23:08:22.483Z,-7.10
2023-02-06T23:11:06.510Z,-7.10
2023-02-06T23:13:56.046Z,-6.90
2023-02-06T23:16:38.581Z,-6.90
2023-02-06T23:19:21.694Z,-6.90
2023-02-06T23:22:04.242Z,-6.80
2023-02-06T23:24:49.663Z,-6.90
2023-02-06T23:27:32.236Z,-6.90
2023-02-06T23:30:14.757Z,-6.90
2023-02-06T23:32:57.384Z,-6.90
2023-02-06T23:35:40.711Z,-6.90
2023-02-06T23:38:23.254Z,-7.00
2023-02-06T23:41:07.507Z,-7.00
2023-02-06T23:43:58.174Z,-7.00
2023-02-06T23:46:41.277Z,-7.10
2023-02-06T23:49:23.775Z,-7.10
2023-02-06T23:52:06.634Z,-7.10
2023-02-06T23:54:49.210Z,-7.10
2023-02-06T23:57:31.602Z,-7.10
